Indialantic, Florida
Current Conditions -  °F | °C
As of 5:53 PM on Wednesday 22 Oct 2014 (Local Time) from KMLB Reporting Station
Clear Clear  
Wind Chill: 77°   Ceiling: Unl
Heat Index: 79°   Visibility: 10mi
Dew Point: 65°   Wind: 15mph
Humidity: 66%   Direction: 30°NNE
Pressure: 29.93"   Gusts: NA
Location:  28.09°N, 80.57°W
Report Text: KMLB 222153Z 03013KT 10SM CLR 25/18 A2993 RMK AO2 SLP134 T02500183
Loading
Personal Weather Stations






























Interactive Weather Map New forecast layout! Learn more

10-Day Weather Forecast

Advertisements
Track Severe Weather on mobile